sensor_id;sensor_type;location;lat;lon;timestamp;P1;durP1;ratioP1;P2;durP2;ratioP2
71183;SDS011;58887;51.980;4.464;2022-12-20T00:02:03;2.51;;;2.51;;
71183;SDS011;58887;51.980;4.464;2022-12-20T00:04:29;2.49;;;2.49;;
71183;SDS011;58887;51.980;4.464;2022-12-20T00:06:54;2.70;;;2.70;;
71183;SDS011;58887;51.980;4.464;2022-12-20T00:09:19;2.65;;;2.65;;
71183;SDS011;58887;51.980;4.464;2022-12-20T00:11:45;2.59;;;2.59;;
71183;SDS011;58887;51.980;4.464;2022-12-20T00:14:10;2.65;;;2.65;;
71183;SDS011;58887;51.980;4.464;2022-12-20T00:16:36;2.77;;;2.77;;
71183;SDS011;58887;51.980;4.464;2022-12-20T00:19:03;2.65;;;2.65;;
71183;SDS011;58887;51.980;4.464;2022-12-20T00:21:31;2.65;;;2.65;;
71183;SDS011;58887;51.980;4.464;2022-12-20T00:23:58;2.46;;;2.46;;
71183;SDS011;58887;51.980;4.464;2022-12-20T00:26:26;2.44;;;2.44;;
71183;SDS011;58887;51.980;4.464;2022-12-20T00:28:54;2.66;;;2.66;;
71183;SDS011;58887;51.980;4.464;2022-12-20T00:31:21;2.40;;;2.40;;
71183;SDS011;58887;51.980;4.464;2022-12-20T00:33:48;2.70;;;2.70;;
71183;SDS011;58887;51.980;4.464;2022-12-20T00:36:16;2.59;;;2.59;;
71183;SDS011;58887;51.980;4.464;2022-12-20T00:38:46;2.63;;;2.63;;
71183;SDS011;58887;51.980;4.464;2022-12-20T00:41:16;2.38;;;2.38;;
71183;SDS011;58887;51.980;4.464;2022-12-20T00:43:44;2.59;;;2.59;;
71183;SDS011;58887;51.980;4.464;2022-12-20T00:46:10;2.72;;;2.72;;
71183;SDS011;58887;51.980;4.464;2022-12-20T00:48:37;2.63;;;2.63;;
71183;SDS011;58887;51.980;4.464;2022-12-20T00:51:04;2.60;;;2.60;;
71183;SDS011;58887;51.980;4.464;2022-12-20T00:53:33;2.66;;;2.66;;
71183;SDS011;58887;51.980;4.464;2022-12-20T00:55:59;2.36;;;2.36;;
71183;SDS011;58887;51.980;4.464;2022-12-20T00:58:25;2.78;;;2.78;;
71183;SDS011;58887;51.980;4.464;2022-12-20T01:00:51;2.70;;;2.70;;
71183;SDS011;58887;51.980;4.464;2022-12-20T01:03:17;2.64;;;2.64;;
71183;SDS011;58887;51.980;4.464;2022-12-20T01:05:50;2.71;;;2.71;;
71183;SDS011;58887;51.980;4.464;2022-12-20T01:08:17;2.76;;;2.76;;
71183;SDS011;58887;51.980;4.464;2022-12-20T01:10:43;2.61;;;2.61;;
71183;SDS011;58887;51.980;4.464;2022-12-20T01:13:09;2.90;;;2.90;;
71183;SDS011;58887;51.980;4.464;2022-12-20T01:15:34;2.80;;;2.80;;
71183;SDS011;58887;51.980;4.464;2022-12-20T01:17:59;3.01;;;3.01;;
71183;SDS011;58887;51.980;4.464;2022-12-20T01:20:25;2.57;;;2.57;;
71183;SDS011;58887;51.980;4.464;2022-12-20T01:22:50;2.69;;;2.69;;
71183;SDS011;58887;51.980;4.464;2022-12-20T01:25:16;2.75;;;2.75;;
71183;SDS011;58887;51.980;4.464;2022-12-20T01:27:41;2.62;;;2.62;;
71183;SDS011;58887;51.980;4.464;2022-12-20T01:30:07;2.70;;;2.70;;
71183;SDS011;58887;51.980;4.464;2022-12-20T01:32:33;2.39;;;2.39;;
71183;SDS011;58887;51.980;4.464;2022-12-20T01:34:58;2.49;;;2.49;;
71183;SDS011;58887;51.980;4.464;2022-12-20T01:37:24;2.53;;;2.53;;
71183;SDS011;58887;51.980;4.464;2022-12-20T01:39:49;2.81;;;2.81;;
71183;SDS011;58887;51.980;4.464;2022-12-20T01:42:15;2.57;;;2.57;;
71183;SDS011;58887;51.980;4.464;2022-12-20T01:47:05;2.89;;;2.89;;
71183;SDS011;58887;51.980;4.464;2022-12-20T01:49:35;2.74;;;2.74;;
71183;SDS011;58887;51.980;4.464;2022-12-20T01:52:26;2.81;;;2.81;;
71183;SDS011;58887;51.980;4.464;2022-12-20T01:57:39;3.12;;;3.12;;
71183;SDS011;58887;51.980;4.464;2022-12-20T02:00:10;3.44;;;3.44;;
71183;SDS011;58887;51.980;4.464;2022-12-20T02:02:36;3.32;;;3.32;;
71183;SDS011;58887;51.980;4.464;2022-12-20T02:05:03;3.33;;;3.33;;
71183;SDS011;58887;51.980;4.464;2022-12-20T02:07:29;3.19;;;3.19;;
71183;SDS011;58887;51.980;4.464;2022-12-20T02:09:59;3.09;;;3.09;;
71183;SDS011;58887;51.980;4.464;2022-12-20T02:12:44;3.05;;;3.05;;
71183;SDS011;58887;51.980;4.464;2022-12-20T02:28:53;3.41;;;3.41;;
71183;SDS011;58887;51.980;4.464;2022-12-20T02:31:47;3.23;;;3.23;;
71183;SDS011;58887;51.980;4.464;2022-12-20T02:34:19;3.17;;;3.17;;
71183;SDS011;58887;51.980;4.464;2022-12-20T02:36:49;3.15;;;3.15;;
71183;SDS011;58887;51.980;4.464;2022-12-20T02:39:15;3.36;;;3.36;;
71183;SDS011;58887;51.980;4.464;2022-12-20T02:41:42;3.34;;;3.34;;
71183;SDS011;58887;51.980;4.464;2022-12-20T02:44:23;3.25;;;3.25;;
71183;SDS011;58887;51.980;4.464;2022-12-20T02:47:15;3.37;;;3.37;;
71183;SDS011;58887;51.980;4.464;2022-12-20T02:49:48;2.91;;;2.91;;
71183;SDS011;58887;51.980;4.464;2022-12-20T02:52:17;3.33;;;3.33;;
71183;SDS011;58887;51.980;4.464;2022-12-20T02:54:51;2.87;;;2.87;;
71183;SDS011;58887;51.980;4.464;2022-12-20T02:57:22;2.91;;;2.91;;
71183;SDS011;58887;51.980;4.464;2022-12-20T03:02:38;3.17;;;3.17;;
71183;SDS011;58887;51.980;4.464;2022-12-20T03:05:24;3.13;;;3.13;;
71183;SDS011;58887;51.980;4.464;2022-12-20T03:07:51;3.09;;;3.09;;
71183;SDS011;58887;51.980;4.464;2022-12-20T03:10:18;3.13;;;3.13;;
71183;SDS011;58887;51.980;4.464;2022-12-20T03:12:44;2.99;;;2.99;;
71183;SDS011;58887;51.980;4.464;2022-12-20T03:15:10;2.84;;;2.84;;
71183;SDS011;58887;51.980;4.464;2022-12-20T03:17:35;2.79;;;2.79;;
71183;SDS011;58887;51.980;4.464;2022-12-20T03:20:02;2.56;;;2.56;;
71183;SDS011;58887;51.980;4.464;2022-12-20T03:22:30;2.75;;;2.75;;
71183;SDS011;58887;51.980;4.464;2022-12-20T03:24:57;2.57;;;2.57;;
71183;SDS011;58887;51.980;4.464;2022-12-20T03:27:23;2.48;;;2.48;;
71183;SDS011;58887;51.980;4.464;2022-12-20T03:29:51;2.78;;;2.78;;
71183;SDS011;58887;51.980;4.464;2022-12-20T03:32:16;2.46;;;2.46;;
71183;SDS011;58887;51.980;4.464;2022-12-20T03:34:42;2.79;;;2.79;;
71183;SDS011;58887;51.980;4.464;2022-12-20T03:37:07;37.27;;;37.27;;
71183;SDS011;58887;51.980;4.464;2022-12-20T03:39:33;2.58;;;2.58;;
71183;SDS011;58887;51.980;4.464;2022-12-20T03:41:58;2.82;;;2.82;;
71183;SDS011;58887;51.980;4.464;2022-12-20T03:44:23;2.61;;;2.61;;
71183;SDS011;58887;51.980;4.464;2022-12-20T03:46:49;75.25;;;75.25;;
71183;SDS011;58887;51.980;4.464;2022-12-20T03:49:14;31.17;;;31.17;;
71183;SDS011;58887;51.980;4.464;2022-12-20T03:51:40;90.92;;;90.92;;
71183;SDS011;58887;51.980;4.464;2022-12-20T03:54:05;56.75;;;56.75;;
71183;SDS011;58887;51.980;4.464;2022-12-20T03:56:31;2.81;;;2.81;;
71183;SDS011;58887;51.980;4.464;2022-12-20T03:58:57;2.65;;;2.65;;
71183;SDS011;58887;51.980;4.464;2022-12-20T04:01:24;2.49;;;2.49;;
71183;SDS011;58887;51.980;4.464;2022-12-20T04:03:52;2.38;;;2.38;;
71183;SDS011;58887;51.980;4.464;2022-12-20T04:06:18;2.48;;;2.48;;
71183;SDS011;58887;51.980;4.464;2022-12-20T04:08:45;2.34;;;2.34;;
71183;SDS011;58887;51.980;4.464;2022-12-20T04:11:11;2.44;;;2.44;;
71183;SDS011;58887;51.980;4.464;2022-12-20T04:16:16;2.37;;;2.37;;
71183;SDS011;58887;51.980;4.464;2022-12-20T04:18:44;2.74;;;2.74;;
71183;SDS011;58887;51.980;4.464;2022-12-20T04:21:10;2.65;;;2.65;;
71183;SDS011;58887;51.980;4.464;2022-12-20T04:23:37;2.81;;;2.81;;
71183;SDS011;58887;51.980;4.464;2022-12-20T04:26:05;2.69;;;2.69;;
71183;SDS011;58887;51.980;4.464;2022-12-20T04:28:32;2.55;;;2.55;;
71183;SDS011;58887;51.980;4.464;2022-12-20T04:30:58;2.57;;;2.57;;
71183;SDS011;58887;51.980;4.464;2022-12-20T04:33:25;2.67;;;2.67;;
71183;SDS011;58887;51.980;4.464;2022-12-20T04:35:51;2.87;;;2.87;;
71183;SDS011;58887;51.980;4.464;2022-12-20T04:38:18;2.77;;;2.77;;
71183;SDS011;58887;51.980;4.464;2022-12-20T04:40:46;2.70;;;2.70;;
71183;SDS011;58887;51.980;4.464;2022-12-20T04:43:13;2.69;;;2.69;;
71183;SDS011;58887;51.980;4.464;2022-12-20T04:45:39;2.51;;;2.51;;
71183;SDS011;58887;51.980;4.464;2022-12-20T04:48:05;2.52;;;2.52;;
71183;SDS011;58887;51.980;4.464;2022-12-20T04:50:30;2.61;;;2.61;;
71183;SDS011;58887;51.980;4.464;2022-12-20T04:52:55;2.53;;;2.53;;
71183;SDS011;58887;51.980;4.464;2022-12-20T04:55:39;2.73;;;2.73;;
71183;SDS011;58887;51.980;4.464;2022-12-20T04:58:06;2.44;;;2.44;;
71183;SDS011;58887;51.980;4.464;2022-12-20T05:00:32;2.48;;;2.48;;
71183;SDS011;58887;51.980;4.464;2022-12-20T05:02:58;2.36;;;2.36;;
71183;SDS011;58887;51.980;4.464;2022-12-20T05:05:24;2.37;;;2.37;;
71183;SDS011;58887;51.980;4.464;2022-12-20T05:07:50;2.52;;;2.52;;
71183;SDS011;58887;51.980;4.464;2022-12-20T05:10:16;2.54;;;2.54;;
71183;SDS011;58887;51.980;4.464;2022-12-20T05:12:41;2.60;;;2.60;;
71183;SDS011;58887;51.980;4.464;2022-12-20T05:15:07;2.36;;;2.36;;
71183;SDS011;58887;51.980;4.464;2022-12-20T05:17:33;2.10;;;2.10;;
71183;SDS011;58887;51.980;4.464;2022-12-20T05:19:59;2.35;;;2.35;;
71183;SDS011;58887;51.980;4.464;2022-12-20T05:22:25;2.63;;;2.63;;
71183;SDS011;58887;51.980;4.464;2022-12-20T05:25:09;2.43;;;2.43;;
71183;SDS011;58887;51.980;4.464;2022-12-20T05:27:54;2.52;;;2.52;;
71183;SDS011;58887;51.980;4.464;2022-12-20T05:30:19;213.77;;;213.77;;
71183;SDS011;58887;51.980;4.464;2022-12-20T05:32:45;415.60;;;415.60;;
71183;SDS011;58887;51.980;4.464;2022-12-20T05:35:10;3.88;;;3.88;;
71183;SDS011;58887;51.980;4.464;2022-12-20T05:37:36;3.39;;;3.39;;
71183;SDS011;58887;51.980;4.464;2022-12-20T05:40:01;221.74;;;221.74;;
71183;SDS011;58887;51.980;4.464;2022-12-20T05:42:28;336.05;;;336.05;;
71183;SDS011;58887;51.980;4.464;2022-12-20T05:44:54;52.04;;;52.04;;
71183;SDS011;58887;51.980;4.464;2022-12-20T05:47:19;2.38;;;2.38;;
71183;SDS011;58887;51.980;4.464;2022-12-20T05:49:45;7.06;;;7.06;;
71183;SDS011;58887;51.980;4.464;2022-12-20T05:52:10;270.15;;;270.15;;
71183;SDS011;58887;51.980;4.464;2022-12-20T05:54:35;283.12;;;283.12;;
71183;SDS011;58887;51.980;4.464;2022-12-20T05:57:01;80.04;;;80.04;;
71183;SDS011;58887;51.980;4.464;2022-12-20T05:59:26;575.17;;;575.17;;
71183;SDS011;58887;51.980;4.464;2022-12-20T06:01:52;565.52;;;565.52;;
71183;SDS011;58887;51.980;4.464;2022-12-20T06:04:18;948.31;;;948.31;;
71183;SDS011;58887;51.980;4.464;2022-12-20T06:06:44;1069.33;;;1069.33;;
71183;SDS011;58887;51.980;4.464;2022-12-20T06:09:10;534.26;;;534.26;;
71183;SDS011;58887;51.980;4.464;2022-12-20T06:11:36;3.14;;;3.14;;
71183;SDS011;58887;51.980;4.464;2022-12-20T06:14:01;2.60;;;2.60;;
71183;SDS011;58887;51.980;4.464;2022-12-20T06:16:27;2.37;;;2.37;;
71183;SDS011;58887;51.980;4.464;2022-12-20T06:18:53;2.69;;;2.69;;
71183;SDS011;58887;51.980;4.464;2022-12-20T06:21:18;2.74;;;2.74;;
71183;SDS011;58887;51.980;4.464;2022-12-20T06:23:44;2.59;;;2.59;;
71183;SDS011;58887;51.980;4.464;2022-12-20T06:26:09;2.58;;;2.58;;
71183;SDS011;58887;51.980;4.464;2022-12-20T06:28:35;2.44;;;2.44;;
71183;SDS011;58887;51.980;4.464;2022-12-20T06:31:07;2.44;;;2.44;;
71183;SDS011;58887;51.980;4.464;2022-12-20T06:33:34;2.54;;;2.54;;
71183;SDS011;58887;51.980;4.464;2022-12-20T06:36:00;2.38;;;2.38;;
71183;SDS011;58887;51.980;4.464;2022-12-20T06:38:26;2.35;;;2.35;;
71183;SDS011;58887;51.980;4.464;2022-12-20T06:40:52;2.52;;;2.52;;
71183;SDS011;58887;51.980;4.464;2022-12-20T06:43:27;2.57;;;2.57;;
71183;SDS011;58887;51.980;4.464;2022-12-20T06:45:53;2.37;;;2.37;;
71183;SDS011;58887;51.980;4.464;2022-12-20T06:48:18;2.57;;;2.57;;
71183;SDS011;58887;51.980;4.464;2022-12-20T06:50:47;2.05;;;2.05;;
71183;SDS011;58887;51.980;4.464;2022-12-20T06:53:13;2.16;;;2.16;;
71183;SDS011;58887;51.980;4.464;2022-12-20T06:55:38;2.20;;;2.20;;
71183;SDS011;58887;51.980;4.464;2022-12-20T06:58:04;2.16;;;2.16;;
71183;SDS011;58887;51.980;4.464;2022-12-20T07:00:29;2.01;;;2.01;;
71183;SDS011;58887;51.980;4.464;2022-12-20T07:02:55;2.46;;;2.46;;
71183;SDS011;58887;51.980;4.464;2022-12-20T07:05:21;2.20;;;2.20;;
71183;SDS011;58887;51.980;4.464;2022-12-20T07:07:46;2.46;;;2.46;;
71183;SDS011;58887;51.980;4.464;2022-12-20T07:10:12;2.16;;;2.16;;
71183;SDS011;58887;51.980;4.464;2022-12-20T07:12:37;1.81;;;1.81;;
71183;SDS011;58887;51.980;4.464;2022-12-20T07:15:03;2.23;;;2.23;;
71183;SDS011;58887;51.980;4.464;2022-12-20T07:17:28;18.38;;;18.38;;
71183;SDS011;58887;51.980;4.464;2022-12-20T07:19:54;2.11;;;2.11;;
71183;SDS011;58887;51.980;4.464;2022-12-20T07:22:19;2.19;;;2.19;;
71183;SDS011;58887;51.980;4.464;2022-12-20T07:24:45;2.17;;;2.17;;
71183;SDS011;58887;51.980;4.464;2022-12-20T07:27:11;2.42;;;2.42;;
71183;SDS011;58887;51.980;4.464;2022-12-20T07:29:38;2.10;;;2.10;;
71183;SDS011;58887;51.980;4.464;2022-12-20T07:32:06;2.06;;;2.06;;
71183;SDS011;58887;51.980;4.464;2022-12-20T07:34:32;5.53;;;5.53;;
71183;SDS011;58887;51.980;4.464;2022-12-20T07:36:57;21.57;;;21.57;;
71183;SDS011;58887;51.980;4.464;2022-12-20T07:39:23;2.38;;;2.38;;
71183;SDS011;58887;51.980;4.464;2022-12-20T07:41:51;1142.81;;;1142.81;;
71183;SDS011;58887;51.980;4.464;2022-12-20T07:44:19;162.22;;;162.22;;
71183;SDS011;58887;51.980;4.464;2022-12-20T07:46:45;11.92;;;11.92;;
71183;SDS011;58887;51.980;4.464;2022-12-20T07:49:10;142.35;;;142.35;;
71183;SDS011;58887;51.980;4.464;2022-12-20T07:51:37;27.00;;;27.00;;
71183;SDS011;58887;51.980;4.464;2022-12-20T07:54:11;2.34;;;2.34;;
71183;SDS011;58887;51.980;4.464;2022-12-20T07:56:46;2.16;;;2.16;;
71183;SDS011;58887;51.980;4.464;2022-12-20T07:59:17;1.99;;;1.99;;
71183;SDS011;58887;51.980;4.464;2022-12-20T08:01:48;1.97;;;1.97;;
71183;SDS011;58887;51.980;4.464;2022-12-20T08:04:14;2.30;;;2.30;;
71183;SDS011;58887;51.980;4.464;2022-12-20T08:06:45;2.10;;;2.10;;
71183;SDS011;58887;51.980;4.464;2022-12-20T08:09:12;2.16;;;2.16;;
71183;SDS011;58887;51.980;4.464;2022-12-20T08:11:40;2.00;;;2.00;;
71183;SDS011;58887;51.980;4.464;2022-12-20T08:14:10;1.99;;;1.99;;
71183;SDS011;58887;51.980;4.464;2022-12-20T08:16:36;1.87;;;1.87;;
71183;SDS011;58887;51.980;4.464;2022-12-20T08:19:02;2.09;;;2.09;;
71183;SDS011;58887;51.980;4.464;2022-12-20T08:21:28;2.04;;;2.04;;
71183;SDS011;58887;51.980;4.464;2022-12-20T08:23:54;1.89;;;1.89;;
71183;SDS011;58887;51.980;4.464;2022-12-20T08:26:20;1.85;;;1.85;;
71183;SDS011;58887;51.980;4.464;2022-12-20T08:28:46;1.86;;;1.86;;
71183;SDS011;58887;51.980;4.464;2022-12-20T08:31:11;1.77;;;1.77;;
71183;SDS011;58887;51.980;4.464;2022-12-20T08:33:37;2.04;;;2.04;;
71183;SDS011;58887;51.980;4.464;2022-12-20T08:36:05;1.74;;;1.74;;
71183;SDS011;58887;51.980;4.464;2022-12-20T08:38:33;1.79;;;1.79;;
71183;SDS011;58887;51.980;4.464;2022-12-20T08:41:06;1.74;;;1.74;;
71183;SDS011;58887;51.980;4.464;2022-12-20T08:43:35;1.76;;;1.76;;
71183;SDS011;58887;51.980;4.464;2022-12-20T08:46:01;2.02;;;2.02;;
71183;SDS011;58887;51.980;4.464;2022-12-20T08:48:27;1.88;;;1.88;;
71183;SDS011;58887;51.980;4.464;2022-12-20T08:50:54;1.82;;;1.82;;
71183;SDS011;58887;51.980;4.464;2022-12-20T08:53:21;2.00;;;2.00;;
71183;SDS011;58887;51.980;4.464;2022-12-20T08:55:46;1.96;;;1.96;;
71183;SDS011;58887;51.980;4.464;2022-12-20T08:58:11;2.08;;;2.08;;
71183;SDS011;58887;51.980;4.464;2022-12-20T09:00:37;2.30;;;2.30;;
71183;SDS011;58887;51.980;4.464;2022-12-20T09:03:02;2.43;;;2.43;;
71183;SDS011;58887;51.980;4.464;2022-12-20T09:05:28;2.18;;;2.18;;
71183;SDS011;58887;51.980;4.464;2022-12-20T09:07:53;2.33;;;2.33;;
71183;SDS011;58887;51.980;4.464;2022-12-20T09:10:19;2.35;;;2.35;;
71183;SDS011;58887;51.980;4.464;2022-12-20T09:12:44;2.30;;;2.30;;
71183;SDS011;58887;51.980;4.464;2022-12-20T09:15:10;2.12;;;2.12;;
71183;SDS011;58887;51.980;4.464;2022-12-20T09:17:35;2.18;;;2.18;;
71183;SDS011;58887;51.980;4.464;2022-12-20T09:20:02;2.11;;;2.11;;
71183;SDS011;58887;51.980;4.464;2022-12-20T09:22:28;2.27;;;2.27;;
71183;SDS011;58887;51.980;4.464;2022-12-20T09:24:54;2.25;;;2.25;;
71183;SDS011;58887;51.980;4.464;2022-12-20T09:27:19;2.20;;;2.20;;
71183;SDS011;58887;51.980;4.464;2022-12-20T09:29:45;2.13;;;2.13;;
71183;SDS011;58887;51.980;4.464;2022-12-20T09:32:10;2.10;;;2.10;;
71183;SDS011;58887;51.980;4.464;2022-12-20T09:34:37;1.94;;;1.94;;
71183;SDS011;58887;51.980;4.464;2022-12-20T09:37:03;1.86;;;1.86;;
71183;SDS011;58887;51.980;4.464;2022-12-20T09:39:29;1.88;;;1.88;;
71183;SDS011;58887;51.980;4.464;2022-12-20T09:41:56;1.99;;;1.99;;
71183;SDS011;58887;51.980;4.464;2022-12-20T09:46:58;1.84;;;1.84;;
71183;SDS011;58887;51.980;4.464;2022-12-20T09:49:34;2.15;;;2.15;;
71183;SDS011;58887;51.980;4.464;2022-12-20T09:55:03;90.31;;;74.82;;
71183;SDS011;58887;51.980;4.464;2022-12-20T09:57:57;2.73;;;2.73;;
71183;SDS011;58887;51.980;4.464;2022-12-20T10:00:49;6.78;;;6.77;;
71183;SDS011;58887;51.980;4.464;2022-12-20T10:03:19;5.08;;;5.02;;
71183;SDS011;58887;51.980;4.464;2022-12-20T10:05:59;2.28;;;2.28;;
71183;SDS011;58887;51.980;4.464;2022-12-20T10:08:47;2.21;;;2.21;;
71183;SDS011;58887;51.980;4.464;2022-12-20T10:11:27;2.17;;;2.17;;
71183;SDS011;58887;51.980;4.464;2022-12-20T10:16:44;2.51;;;2.51;;
71183;SDS011;58887;51.980;4.464;2022-12-20T10:22:24;1.97;;;1.97;;
71183;SDS011;58887;51.980;4.464;2022-12-20T10:25:00;2.01;;;2.01;;
71183;SDS011;58887;51.980;4.464;2022-12-20T10:27:31;2.14;;;2.14;;
71183;SDS011;58887;51.980;4.464;2022-12-20T10:30:04;2.13;;;2.13;;
71183;SDS011;58887;51.980;4.464;2022-12-20T10:32:40;2.18;;;2.18;;
71183;SDS011;58887;51.980;4.464;2022-12-20T10:37:35;1.89;;;1.89;;
71183;SDS011;58887;51.980;4.464;2022-12-20T10:40:02;1.93;;;1.93;;
71183;SDS011;58887;51.980;4.464;2022-12-20T10:42:32;2.16;;;2.16;;
71183;SDS011;58887;51.980;4.464;2022-12-20T10:45:03;10.84;;;10.84;;
71183;SDS011;58887;51.980;4.464;2022-12-20T10:47:57;18.10;;;18.10;;
71183;SDS011;58887;51.980;4.464;2022-12-20T10:50:24;4.73;;;4.73;;
71183;SDS011;58887;51.980;4.464;2022-12-20T10:55:35;9.40;;;9.40;;
71183;SDS011;58887;51.980;4.464;2022-12-20T10:58:04;17.15;;;17.15;;
71183;SDS011;58887;51.980;4.464;2022-12-20T11:00:41;9.11;;;9.11;;
71183;SDS011;58887;51.980;4.464;2022-12-20T11:03:19;35.77;;;35.77;;
71183;SDS011;58887;51.980;4.464;2022-12-20T11:05:56;16.49;;;16.49;;
71183;SDS011;58887;51.980;4.464;2022-12-20T11:08:24;73.95;;;73.95;;
71183;SDS011;58887;51.980;4.464;2022-12-20T11:11:09;34.11;;;34.11;;
71183;SDS011;58887;51.980;4.464;2022-12-20T11:13:37;31.96;;;31.96;;
71183;SDS011;58887;51.980;4.464;2022-12-20T11:16:04;14.76;;;14.76;;
71183;SDS011;58887;51.980;4.464;2022-12-20T11:18:34;6.68;;;6.68;;
71183;SDS011;58887;51.980;4.464;2022-12-20T11:24:07;126.60;;;126.60;;
71183;SDS011;58887;51.980;4.464;2022-12-20T11:29:56;106.82;;;106.82;;
71183;SDS011;58887;51.980;4.464;2022-12-20T11:38:02;30.31;;;30.31;;
71183;SDS011;58887;51.980;4.464;2022-12-20T11:40:43;70.09;;;70.09;;
71183;SDS011;58887;51.980;4.464;2022-12-20T11:46:16;266.07;;;266.07;;
71183;SDS011;58887;51.980;4.464;2022-12-20T11:54:35;67.39;;;67.39;;
71183;SDS011;58887;51.980;4.464;2022-12-20T11:57:19;69.61;;;69.61;;
71183;SDS011;58887;51.980;4.464;2022-12-20T11:59:55;103.26;;;103.26;;
71183;SDS011;58887;51.980;4.464;2022-12-20T12:02:30;143.47;;;143.47;;
71183;SDS011;58887;51.980;4.464;2022-12-20T12:05:04;177.09;;;177.09;;
71183;SDS011;58887;51.980;4.464;2022-12-20T12:07:32;145.12;;;145.12;;
71183;SDS011;58887;51.980;4.464;2022-12-20T12:12:32;192.99;;;192.99;;
71183;SDS011;58887;51.980;4.464;2022-12-20T12:17:44;197.48;;;197.48;;
71183;SDS011;58887;51.980;4.464;2022-12-20T12:23:16;284.16;;;284.16;;
71183;SDS011;58887;51.980;4.464;2022-12-20T12:25:54;250.45;;;250.45;;
71183;SDS011;58887;51.980;4.464;2022-12-20T12:28:20;135.57;;;135.57;;
71183;SDS011;58887;51.980;4.464;2022-12-20T12:30:51;132.17;;;132.17;;
71183;SDS011;58887;51.980;4.464;2022-12-20T12:33:27;176.96;;;176.96;;
71183;SDS011;58887;51.980;4.464;2022-12-20T12:43:53;252.46;;;252.46;;
71183;SDS011;58887;51.980;4.464;2022-12-20T12:46:26;167.30;;;167.30;;
71183;SDS011;58887;51.980;4.464;2022-12-20T12:48:58;173.94;;;173.94;;
71183;SDS011;58887;51.980;4.464;2022-12-20T12:51:35;184.03;;;184.03;;
71183;SDS011;58887;51.980;4.464;2022-12-20T12:56:36;207.67;;;207.67;;
71183;SDS011;58887;51.980;4.464;2022-12-20T13:11:49;126.18;;;126.18;;
71183;SDS011;58887;51.980;4.464;2022-12-20T13:21:52;26.66;;;26.66;;
71183;SDS011;58887;51.980;4.464;2022-12-20T13:27:15;62.86;;;62.86;;
71183;SDS011;58887;51.980;4.464;2022-12-20T13:37:57;15.44;;;15.44;;
71183;SDS011;58887;51.980;4.464;2022-12-20T13:40:42;42.14;;;42.14;;
71183;SDS011;58887;51.980;4.464;2022-12-20T13:45:45;115.23;;;115.23;;
71183;SDS011;58887;51.980;4.464;2022-12-20T13:48:17;74.87;;;74.87;;
71183;SDS011;58887;51.980;4.464;2022-12-20T13:50:52;101.66;;;101.66;;
71183;SDS011;58887;51.980;4.464;2022-12-20T13:53:20;43.29;;;43.29;;
71183;SDS011;58887;51.980;4.464;2022-12-20T13:55:48;64.67;;;64.67;;
71183;SDS011;58887;51.980;4.464;2022-12-20T13:58:19;114.23;;;114.23;;
71183;SDS011;58887;51.980;4.464;2022-12-20T14:00:48;98.13;;;98.13;;
71183;SDS011;58887;51.980;4.464;2022-12-20T14:05:52;14.86;;;14.86;;
71183;SDS011;58887;51.980;4.464;2022-12-20T14:08:26;13.79;;;13.79;;
71183;SDS011;58887;51.980;4.464;2022-12-20T14:11:09;10.61;;;10.61;;
71183;SDS011;58887;51.980;4.464;2022-12-20T14:13:37;4.45;;;4.45;;
71183;SDS011;58887;51.980;4.464;2022-12-20T14:16:10;4.99;;;4.99;;
71183;SDS011;58887;51.980;4.464;2022-12-20T14:18:39;5.49;;;5.49;;
71183;SDS011;58887;51.980;4.464;2022-12-20T14:21:05;6.29;;;6.29;;
71183;SDS011;58887;51.980;4.464;2022-12-20T14:23:38;5.60;;;5.60;;
71183;SDS011;58887;51.980;4.464;2022-12-20T14:26:11;5.90;;;5.90;;
71183;SDS011;58887;51.980;4.464;2022-12-20T14:28:44;4.76;;;4.76;;
71183;SDS011;58887;51.980;4.464;2022-12-20T14:31:24;4.90;;;4.90;;
71183;SDS011;58887;51.980;4.464;2022-12-20T14:36:34;5.31;;;5.31;;
71183;SDS011;58887;51.980;4.464;2022-12-20T14:39:09;5.00;;;5.00;;
71183;SDS011;58887;51.980;4.464;2022-12-20T14:42:00;5.42;;;5.42;;
71183;SDS011;58887;51.980;4.464;2022-12-20T14:44:28;5.42;;;5.42;;
71183;SDS011;58887;51.980;4.464;2022-12-20T14:46:55;9.44;;;9.44;;
71183;SDS011;58887;51.980;4.464;2022-12-20T14:49:24;7.87;;;7.87;;
71183;SDS011;58887;51.980;4.464;2022-12-20T15:05:05;7.00;;;7.00;;
71183;SDS011;58887;51.980;4.464;2022-12-20T15:07:50;5.70;;;5.70;;
71183;SDS011;58887;51.980;4.464;2022-12-20T15:10:15;6.31;;;6.31;;
71183;SDS011;58887;51.980;4.464;2022-12-20T15:12:41;6.49;;;6.49;;
71183;SDS011;58887;51.980;4.464;2022-12-20T15:15:10;6.59;;;6.59;;
71183;SDS011;58887;51.980;4.464;2022-12-20T15:17:39;5.32;;;5.32;;
71183;SDS011;58887;51.980;4.464;2022-12-20T15:20:07;5.18;;;5.18;;
71183;SDS011;58887;51.980;4.464;2022-12-20T15:22:36;5.21;;;5.21;;
71183;SDS011;58887;51.980;4.464;2022-12-20T15:25:04;5.06;;;5.06;;
71183;SDS011;58887;51.980;4.464;2022-12-20T15:27:40;5.09;;;5.09;;
71183;SDS011;58887;51.980;4.464;2022-12-20T15:30:10;5.39;;;5.39;;
71183;SDS011;58887;51.980;4.464;2022-12-20T15:32:38;5.20;;;5.20;;
71183;SDS011;58887;51.980;4.464;2022-12-20T15:35:05;5.05;;;5.05;;
71183;SDS011;58887;51.980;4.464;2022-12-20T15:37:38;5.48;;;5.48;;
71183;SDS011;58887;51.980;4.464;2022-12-20T15:40:04;8.33;;;8.33;;
71183;SDS011;58887;51.980;4.464;2022-12-20T15:42:29;22.30;;;22.30;;
71183;SDS011;58887;51.980;4.464;2022-12-20T15:44:55;10.67;;;10.67;;
71183;SDS011;58887;51.980;4.464;2022-12-20T15:47:21;11.10;;;11.10;;
71183;SDS011;58887;51.980;4.464;2022-12-20T15:49:47;10.56;;;10.56;;
71183;SDS011;58887;51.980;4.464;2022-12-20T15:52:20;12.21;;;12.21;;
71183;SDS011;58887;51.980;4.464;2022-12-20T15:54:47;24.95;;;24.95;;
71183;SDS011;58887;51.980;4.464;2022-12-20T15:57:13;23.74;;;23.74;;
71183;SDS011;58887;51.980;4.464;2022-12-20T15:59:39;14.19;;;14.19;;
71183;SDS011;58887;51.980;4.464;2022-12-20T16:02:16;17.87;;;17.87;;
71183;SDS011;58887;51.980;4.464;2022-12-20T16:04:45;26.98;;;26.98;;
71183;SDS011;58887;51.980;4.464;2022-12-20T16:07:10;10.79;;;10.79;;
71183;SDS011;58887;51.980;4.464;2022-12-20T16:09:36;9.83;;;9.83;;
71183;SDS011;58887;51.980;4.464;2022-12-20T16:12:02;9.89;;;9.89;;
71183;SDS011;58887;51.980;4.464;2022-12-20T16:14:28;7.88;;;7.88;;
71183;SDS011;58887;51.980;4.464;2022-12-20T16:16:53;25.97;;;25.97;;
71183;SDS011;58887;51.980;4.464;2022-12-20T16:19:18;30.56;;;30.56;;
71183;SDS011;58887;51.980;4.464;2022-12-20T16:21:50;44.72;;;44.72;;
71183;SDS011;58887;51.980;4.464;2022-12-20T16:24:17;54.91;;;54.91;;
71183;SDS011;58887;51.980;4.464;2022-12-20T16:26:45;77.74;;;77.74;;
71183;SDS011;58887;51.980;4.464;2022-12-20T16:29:12;223.65;;;223.65;;
71183;SDS011;58887;51.980;4.464;2022-12-20T16:31:38;200.17;;;200.17;;
71183;SDS011;58887;51.980;4.464;2022-12-20T16:34:09;256.62;;;256.62;;
71183;SDS011;58887;51.980;4.464;2022-12-20T16:36:38;163.85;;;163.85;;
71183;SDS011;58887;51.980;4.464;2022-12-20T16:39:04;12.24;;;12.24;;
71183;SDS011;58887;51.980;4.464;2022-12-20T16:41:30;16.20;;;16.20;;
71183;SDS011;58887;51.980;4.464;2022-12-20T16:43:57;18.52;;;18.52;;
71183;SDS011;58887;51.980;4.464;2022-12-20T16:46:25;19.20;;;19.20;;
71183;SDS011;58887;51.980;4.464;2022-12-20T16:48:56;35.85;;;35.85;;
71183;SDS011;58887;51.980;4.464;2022-12-20T16:51:27;179.06;;;179.06;;
71183;SDS011;58887;51.980;4.464;2022-12-20T16:53:54;317.09;;;317.09;;
71183;SDS011;58887;51.980;4.464;2022-12-20T16:56:22;418.93;;;418.93;;
71183;SDS011;58887;51.980;4.464;2022-12-20T16:58:48;507.65;;;507.65;;